Time;durP1;ratioP1;P1;durP2;ratioP2;P2;SDS_P1;SDS_P2;PMS_P1;PMS_P2;Temp;Humidity;BMP_temperature;BMP_pressure;BME280_temperature;BME280_humidity;BME280_pressure;Samples;Min_cycle;Max_cycle;Signal;HPM_P1;HPM_P2
2021/11/15 11:57:32;;;;;;;26.83;13.00;;;7.20;99.90;;;7.20;100.00;101470.75;5112941;27;20124;-78
2021/11/15 12:00:14;;;;;;;25.98;13.85;;;7.10;99.90;;;7.31;99.37;101482.44;5092271;28;20052;-78
2021/11/15 12:02:45;;;;;;;30.80;15.13;;;7.20;99.90;;;7.38;99.17;101480.03;5090177;28;20076;-78
2021/11/15 12:05:22;;;;;;;27.92;13.75;;;7.20;99.90;;;7.40;98.44;101480.53;5089203;28;20040;-79
2021/11/15 12:07:58;;;;;;;24.02;13.25;;;7.20;99.90;;;7.43;98.62;101466.81;5096820;28;20494;-78
2021/11/15 12:10:49;;;;;;;30.13;14.32;;;7.20;99.90;;;7.41;98.49;101471.91;5106693;22;20139;-80
2021/11/15 12:13:17;;;;;;;28.52;14.43;;;7.20;99.90;;;7.43;98.75;101466.00;5052384;28;20045;-82
2021/11/15 12:16:03;;;;;;;25.38;12.80;;;7.20;99.90;;;7.46;98.34;101464.53;5068525;28;20033;-78
2021/11/15 12:18:36;;;;;;;29.33;14.52;;;7.20;99.90;;;7.53;98.16;101467.69;5068729;28;20037;-80
2021/11/15 12:21:02;;;;;;;25.65;11.88;;;7.20;99.90;;;7.59;97.97;101463.66;5052761;28;20029;-80
2021/11/15 12:23:50;;;;;;;24.15;12.95;;;7.20;99.90;;;7.57;97.52;101461.19;5052648;28;20032;-80
2021/11/15 12:26:35;;;;;;;21.38;11.77;;;7.30;99.90;;;7.60;97.71;101455.00;5051850;28;20030;-80
2021/11/15 12:29:27;;;;;;;23.77;12.30;;;7.30;99.90;;;7.53;98.15;101460.19;5054256;28;20093;-81
2021/11/15 12:32:07;;;;;;;27.75;13.32;;;7.20;99.90;;;7.54;97.53;101455.44;5051839;28;20322;-81
2021/11/15 12:34:59;;;;;;;23.35;12.43;;;7.20;99.90;;;7.55;97.34;101451.50;5052350;28;20049;-82
2021/11/15 12:37:45;;;;;;;24.58;12.55;;;7.30;99.90;;;7.60;97.03;101455.00;5035296;28;20037;-81
2021/11/15 12:40:39;;;;;;;28.42;12.38;;;7.20;99.90;;;7.61;96.93;101447.47;5067683;28;20106;-82
2021/11/15 12:43:18;;;;;;;23.58;12.02;;;7.30;99.90;;;7.65;96.65;101446.50;5050841;28;20086;-82
2021/11/15 12:46:13;;;;;;;20.13;10.40;;;7.30;99.90;;;7.54;96.54;101447.94;5049589;28;20036;-81
2021/11/15 12:48:43;;;;;;;21.48;10.52;;;7.30;99.90;;;7.48;97.12;101454.75;5067718;28;20052;-79
2021/11/15 12:51:23;;;;;;;19.85;10.40;;;7.20;99.90;;;7.52;97.01;101447.41;5034300;28;20038;-80
2021/11/15 12:53:53;;;;;;;21.88;10.52;;;7.20;99.90;;;7.50;96.98;101448.88;5050791;28;20026;-80
2021/11/15 12:56:27;;;;;;;21.25;10.98;;;7.20;99.90;;;7.54;96.91;101445.16;5051032;28;20029;-82
2021/11/15 12:58:55;;;;;;;20.25;10.55;;;7.20;99.90;;;7.61;96.94;101444.69;5051476;28;20056;-83
2021/11/15 13:01:24;;;;;;;17.02;10.27;;;7.20;99.90;;;7.57;96.20;101433.41;5051417;28;20103;-80
2021/11/15 13:03:55;;;;;;;22.25;12.57;;;7.20;99.90;;;7.54;96.42;101439.59;5053904;28;20080;-81
2021/11/15 13:06:26;;;;;;;21.05;11.43;;;7.20;99.90;;;7.40;97.22;101442.44;5052006;28;20037;-81
2021/11/15 13:08:52;;;;;;;20.27;11.00;;;7.10;99.90;;;7.47;97.36;101449.50;5038108;28;20426;-81
2021/11/15 13:11:22;;;;;;;24.73;11.18;;;7.10;99.90;;;7.44;97.40;101445.41;5038891;28;20100;-80
2021/11/15 13:13:49;;;;;;;20.42;10.18;;;7.10;99.90;;;7.49;97.16;101444.44;5038966;28;20029;-81
2021/11/15 13:16:15;;;;;;;23.65;11.52;;;7.10;99.90;;;7.45;97.59;101440.69;5036472;28;20037;-80
2021/11/15 13:18:41;;;;;;;21.25;11.27;;;7.10;99.90;;;7.38;97.57;101439.16;5037973;28;20029;-79
2021/11/15 13:21:11;;;;;;;23.98;11.63;;;7.00;99.90;;;7.36;98.36;101437.81;5038185;28;20080;-81
2021/11/15 13:23:39;;;;;;;24.00;12.15;;;7.10;99.90;;;7.36;98.76;101435.88;5036118;28;20036;-80
2021/11/15 13:26:07;;;;;;;24.65;12.25;;;7.00;99.90;;;7.39;98.79;101428.84;5020887;28;20034;-80
2021/11/15 13:28:36;;;;;;;24.13;11.80;;;7.00;99.90;;;7.40;99.47;101434.13;5059483;28;20025;-80
2021/11/15 13:31:04;;;;;;;22.73;10.93;;;7.00;99.90;;;7.43;98.95;101435.44;5043261;28;20521;-80
2021/11/15 13:33:33;;;;;;;24.00;12.13;;;7.10;99.90;;;7.41;98.61;101432.16;5050329;28;20106;-80
2021/11/15 13:35:59;;;;;;;21.00;11.13;;;7.00;99.90;;;7.38;98.73;101432.78;5058880;28;20423;-81
2021/11/15 13:38:26;;;;;;;22.65;12.10;;;7.00;99.90;;;7.38;98.62;101432.78;5044436;28;20076;-80
2021/11/15 13:40:52;;;;;;;23.38;11.57;;;7.00;99.90;;;7.41;98.73;101437.72;5038065;28;20120;-82
2021/11/15 13:43:24;;;;;;;29.52;14.48;;;7.00;99.90;;;7.43;98.45;101441.81;5050552;28;20031;-81
2021/11/15 13:45:55;;;;;;;26.63;12.45;;;7.00;99.90;;;7.35;99.02;101439.00;5057227;28;20423;-83
2021/11/15 13:48:24;;;;;;;24.45;12.68;;;7.00;99.90;;;7.35;99.21;101433.44;5056415;28;20469;-79
2021/11/15 13:50:52;;;;;;;25.65;12.73;;;7.00;99.90;;;7.32;99.23;101429.31;5032320;28;20032;-82
2021/11/15 13:53:18;;;;;;;26.08;12.38;;;7.00;99.90;;;7.27;99.15;101423.91;5057453;28;20423;-81
2021/11/15 13:55:45;;;;;;;26.85;13.00;;;6.90;99.90;;;7.23;99.57;101416.50;5057366;28;20091;-82
2021/11/15 13:58:13;;;;;;;28.98;14.18;;;6.90;99.90;;;7.34;99.21;101417.88;5068215;28;20044;-82
2021/11/15 14:00:39;;;;;;;27.40;12.80;;;6.90;99.90;;;7.33;99.08;101413.47;5041225;28;20043;-81
2021/11/15 14:03:05;;;;;;;26.60;12.43;;;6.90;99.90;;;7.30;99.26;101416.88;5075269;28;20056;-79
2021/11/15 14:05:32;;;;;;;28.83;14.00;;;6.90;99.90;;;7.34;98.85;101420.66;5070140;28;20033;-79
2021/11/15 14:07:59;;;;;;;27.92;13.50;;;6.90;99.90;;;7.42;98.67;101414.31;5056556;28;20395;-80
2021/11/15 14:10:25;;;;;;;28.33;14.10;;;6.90;99.90;;;7.46;98.02;101420.91;5037945;28;20030;-79
2021/11/15 14:12:51;;;;;;;24.13;13.10;;;6.90;99.90;;;7.43;98.41;101415.97;5051263;28;20342;-81
2021/11/15 14:15:17;;;;;;;28.08;13.88;;;6.90;99.90;;;7.41;98.80;101421.03;5034811;28;20037;-82
2021/11/15 14:17:44;;;;;;;31.45;15.13;;;6.80;99.90;;;7.28;99.00;101424.72;5034975;28;20116;-82
2021/11/15 14:20:13;;;;;;;28.33;13.95;;;6.80;99.90;;;7.32;99.58;101420.19;5034980;28;20468;-81
2021/11/15 14:22:44;;;;;;;29.75;13.90;;;6.80;99.90;;;7.28;99.11;101414.44;5036123;28;20025;-81
2021/11/15 14:25:13;;;;;;;28.40;13.68;;;6.80;99.90;;;7.34;99.17;101423.44;5019139;28;20381;-80
2021/11/15 14:27:39;;;;;;;27.35;14.60;;;6.80;99.90;;;7.29;98.92;101423.56;5019202;28;20033;-79
2021/11/15 14:30:10;;;;;;;29.52;15.10;;;6.80;99.90;;;7.34;98.81;101420.66;5036475;28;20025;-80
2021/11/15 14:32:36;;;;;;;27.13;13.48;;;6.80;99.90;;;7.37;98.96;101411.69;5038287;28;20563;-80
2021/11/15 14:35:05;;;;;;;26.92;14.52;;;6.80;99.90;;;7.35;98.63;101420.34;5037850;28;20025;-82
2021/11/15 14:37:32;;;;;;;28.77;14.48;;;6.80;99.90;;;7.31;98.96;101418.53;5037121;28;20108;-80
2021/11/15 14:39:58;;;;;;;30.00;14.85;;;6.80;99.90;;;7.37;98.07;101412.50;5021123;28;20345;-82
2021/11/15 14:42:24;;;;;;;27.38;14.73;;;6.80;99.90;;;7.23;99.00;101420.09;5039512;28;20030;-82
2021/11/15 14:44:50;;;;;;;29.83;14.70;;;6.80;99.90;;;7.33;98.16;101410.69;5040351;28;20022;-82
2021/11/15 14:47:22;;;;;;;30.85;14.30;;;6.80;99.90;;;7.35;98.32;101414.78;5039722;28;20029;-82
2021/11/15 14:49:52;;;;;;;32.30;15.65;;;6.80;99.90;;;7.32;97.87;101414.63;5007115;28;20033;-81
2021/11/15 14:52:22;;;;;;;31.40;15.38;;;6.80;99.90;;;7.37;96.89;101423.63;5053687;28;20029;-80
2021/11/15 14:54:50;;;;;;;27.63;15.07;;;6.80;99.90;;;7.31;96.79;101424.09;5069162;28;20056;-81
2021/11/15 14:57:20;;;;;;;30.77;16.02;;;6.80;99.90;;;7.22;96.69;101417.66;5040297;28;20061;-81
2021/11/15 14:59:47;;;;;;;33.55;18.17;;;6.80;99.90;;;7.28;96.72;101414.44;5038276;28;20061;-83
2021/11/15 15:02:14;;;;;;;30.98;16.08;;;6.80;99.90;;;7.25;97.00;101425.34;5037767;28;20025;-82
2021/11/15 15:04:40;;;;;;;31.75;17.15;;;6.70;99.90;;;7.38;95.93;101418.91;5035602;28;20041;-80
2021/11/15 15:07:09;;;;;;;26.35;15.85;;;6.80;99.90;;;7.32;96.66;101422.94;5035348;28;20025;-81
2021/11/15 15:09:39;;;;;;;32.70;17.92;;;6.80;99.90;;;7.25;97.21;101419.78;5035331;28;20056;-81
2021/11/15 15:12:08;;;;;;;30.23;16.90;;;6.80;99.90;;;7.26;97.09;101425.03;5035707;28;20041;-81
2021/11/15 15:14:35;;;;;;;32.45;16.45;;;6.80;99.90;;;7.35;97.20;101427.88;5019454;28;20120;-80
2021/11/15 15:17:03;;;;;;;29.52;16.10;;;6.80;99.90;;;7.38;97.15;101430.00;5035555;28;20098;-82
2021/11/15 15:19:35;;;;;;;30.83;16.73;;;6.80;99.90;;;7.39;96.62;101435.25;5035482;28;20411;-82
2021/11/15 15:22:02;;;;;;;28.20;16.17;;;6.80;99.90;;;7.35;96.19;101425.88;5036908;28;20053;-81
2021/11/15 15:24:29;;;;;;;27.60;16.08;;;6.80;99.90;;;7.37;96.78;101433.91;5034307;28;20040;-80
2021/11/15 15:26:57;;;;;;;28.50;16.02;;;6.80;99.90;;;7.36;95.79;101437.81;5035273;28;20036;-80
2021/11/15 15:29:24;;;;;;;28.08;17.05;;;6.80;99.90;;;7.37;96.06;101431.16;5036290;28;20035;-80
2021/11/15 15:31:51;;;;;;;34.83;16.75;;;6.80;99.90;;;7.34;95.85;101432.59;5017794;28;20197;-79
2021/11/15 15:34:17;;;;;;;28.30;17.08;;;6.80;99.90;;;7.26;96.42;101418.63;5050294;28;20032;-79
2021/11/15 15:36:43;;;;;;;24.90;15.48;;;6.80;99.90;;;7.30;96.55;101412.13;5017285;28;20476;-82
2021/11/15 15:39:10;;;;;;;29.10;16.50;;;6.80;99.90;;;7.29;96.87;101402.16;5032910;28;20053;-80
2021/11/15 15:41:37;;;;;;;29.20;16.88;;;6.80;99.90;;;7.36;96.41;101401.69;5033048;28;20033;-81
2021/11/15 15:44:04;;;;;;;26.05;16.20;;;6.80;99.90;;;7.39;96.60;101395.50;5034844;28;20052;-79
2021/11/15 15:46:32;;;;;;;27.63;16.38;;;6.80;99.90;;;7.37;97.03;101389.47;5036168;28;20103;-80
2021/11/15 15:48:59;;;;;;;27.52;17.13;;;6.80;99.90;;;7.35;96.98;101388.97;5033172;28;20029;-80
2021/11/15 15:51:28;;;;;;;28.75;16.75;;;6.80;99.90;;;7.33;97.29;101383.72;5034519;28;20029;-79
2021/11/15 15:54:00;;;;;;;28.25;16.40;;;6.80;99.90;;;7.26;97.10;101388.91;5033195;28;20075;-83
2021/11/15 15:56:30;;;;;;;27.83;16.60;;;6.80;99.90;;;7.32;97.03;101386.81;5017196;28;20041;-80
2021/11/15 15:59:00;;;;;;;30.70;17.95;;;6.80;99.90;;;7.27;97.41;101378.59;5000899;28;20534;-81
2021/11/15 16:01:26;;;;;;;26.80;17.38;;;6.80;99.90;;;7.30;97.01;101383.53;5033468;28;20034;-79
2021/11/15 16:04:11;;;;;;;31.85;18.05;;;6.80;99.90;;;7.35;97.20;101383.41;5035026;28;20102;-80
2021/11/15 16:13:23;;;;;;;30.25;16.85;;;6.80;99.90;;;7.41;96.81;101385.72;5054555;28;20450;-79
2021/11/15 16:15:22;;;;;;;29.63;17.60;;;6.80;99.90;;;7.39;97.04;101390.78;5049402;28;20165;-78
2021/11/15 16:18:08;;;;;;;29.40;17.25;;;6.80;99.90;;;7.33;97.30;101394.00;5054273;28;20089;-82
2021/11/15 16:20:36;;;;;;;25.60;15.45;;;6.80;99.90;;;7.38;97.19;101386.34;5052899;28;20033;-80
2021/11/15 16:23:03;;;;;;;32.13;16.92;;;6.80;99.90;;;7.46;96.34;101395.06;5054592;28;20040;-81
2021/11/15 16:25:30;;;;;;;26.25;17.48;;;6.90;99.90;;;7.41;97.11;101396.03;5053954;28;20025;-82
2021/11/15 16:27:56;;;;;;;27.33;17.05;;;6.90;99.90;;;7.40;97.33;101383.25;5053560;28;20025;-79
2021/11/15 16:30:28;;;;;;;24.90;16.17;;;6.90;99.90;;;7.42;97.31;101386.53;5053266;28;20032;-79
2021/11/15 16:33:00;;;;;;;30.73;18.00;;;6.90;99.90;;;7.38;97.25;101382.78;5054393;28;20113;-82
2021/11/15 16:35:26;;;;;;;26.95;17.27;;;6.90;99.90;;;7.37;97.58;101384.72;5054575;28;20029;-81
2021/11/15 16:37:52;;;;;;;25.92;16.95;;;6.90;99.90;;;7.41;98.22;101382.94;5056913;28;20108;-83
2021/11/15 16:40:19;;;;;;;27.10;17.23;;;6.90;99.90;;;7.39;97.30;101376.06;5059277;28;20115;-84
2021/11/15 16:42:47;;;;;;;26.70;16.27;;;6.90;99.90;;;7.33;97.08;101389.28;5061787;28;20103;-83
2021/11/15 16:45:19;;;;;;;27.33;16.20;;;6.90;99.90;;;7.37;97.71;101381.94;5047951;28;20041;-82
2021/11/15 16:47:55;;;;;;;24.65;16.40;;;6.90;99.90;;;7.41;97.58;101382.94;5017025;28;20028;-82
2021/11/15 16:50:21;;;;;;;30.40;17.42;;;6.80;99.90;;;7.41;97.80;101393.25;5063964;28;20139;-82
2021/11/15 16:52:50;;;;;;;25.13;16.20;;;6.80;99.90;;;7.36;98.58;101390.59;5065194;28;20028;-81
2021/11/15 16:55:25;;;;;;;30.17;17.75;;;6.90;99.90;;;7.46;98.24;101392.28;5030590;28;20044;-83
2021/11/15 16:57:57;;;;;;;24.40;15.90;;;6.90;99.90;;;7.48;98.04;101390.81;5061058;28;20036;-84
2021/11/15 17:00:35;;;;;;;26.73;16.58;;;6.90;99.90;;;7.52;98.21;101397.38;5045229;28;20032;-84
2021/11/15 17:03:05;;;;;;;27.95;15.10;;;6.90;99.90;;;7.49;98.47;101395.25;5063562;28;20104;-83
2021/11/15 17:05:44;;;;;;;26.52;16.92;;;6.90;99.90;;;7.50;98.08;101391.31;5042424;28;20124;-81
2021/11/15 17:08:15;;;;;;;26.55;16.48;;;6.90;99.90;;;7.45;98.29;101405.34;5059506;28;20132;-82
2021/11/15 17:10:47;;;;;;;27.85;17.73;;;6.90;99.90;;;7.53;98.02;101399.03;5054819;28;20091;-80
2021/11/15 17:13:19;;;;;;;27.67;17.10;;;7.00;99.90;;;7.50;98.40;101409.97;5006822;28;20415;-80
2021/11/15 17:15:51;;;;;;;28.38;17.10;;;7.00;99.90;;;7.48;97.71;101407.47;5038502;28;20044;-80
2021/11/15 17:18:20;;;;;;;30.63;18.23;;;6.90;99.90;;;7.35;99.03;101403.66;5038519;28;20037;-85
2021/11/15 17:20:54;;;;;;;28.50;16.83;;;6.90;99.90;;;7.42;98.54;101403.19;5038481;28;20072;-81
2021/11/15 17:23:21;;;;;;;30.27;18.75;;;6.90;99.90;;;7.31;98.59;101405.44;5040925;28;20116;-82
2021/11/15 17:25:48;;;;;;;33.17;18.70;;;6.80;99.90;;;7.29;99.16;101401.31;5038894;28;20029;-83
2021/11/15 17:28:14;;;;;;;33.67;19.17;;;6.80;99.90;;;7.28;99.23;101397.75;5039168;28;20390;-81
2021/11/15 17:30:41;;;;;;;29.05;18.75;;;6.80;99.90;;;7.29;99.33;101401.31;5039232;28;20032;-81
2021/11/15 17:33:08;;;;;;;33.40;18.70;;;6.80;99.90;;;7.27;99.71;101392.50;5038039;28;20026;-80
2021/11/15 17:35:34;;;;;;;27.10;17.67;;;6.70;99.90;;;7.29;99.30;101404.94;5038777;28;20033;-83
2021/11/15 17:38:00;;;;;;;32.60;18.75;;;6.70;99.90;;;7.21;99.69;101402.94;5039320;28;20120;-83
2021/11/15 17:40:26;;;;;;;32.55;18.35;;;6.70;99.90;;;7.28;100.00;101396.94;5040330;28;20056;-83
2021/11/15 17:42:54;;;;;;;31.15;18.08;;;6.80;99.90;;;7.27;99.52;101404.44;5021206;28;20037;-83
2021/11/15 17:45:22;;;;;;;32.15;18.63;;;6.80;99.90;;;7.31;99.78;101396.28;5039313;28;20044;-82
2021/11/15 17:47:54;;;;;;;30.13;17.52;;;6.80;99.90;;;7.27;99.59;101398.06;5040972;28;20085;-81
2021/11/15 17:50:22;;;;;;;29.80;18.88;;;6.70;99.90;;;7.27;99.86;101410.00;5038598;28;20396;-84
2021/11/15 17:52:52;;;;;;;32.75;18.50;;;6.80;99.90;;;7.33;99.92;101405.13;5039997;28;20026;-83
2021/11/15 17:58:02;;;;;;;31.17;18.17;;;6.80;99.90;;;7.39;99.77;101401.06;5039526;28;20040;-82
2021/11/15 18:00:30;;;;;;;37.35;20.05;;;6.80;99.90;;;7.40;99.14;101416.63;5022854;28;20044;-83
2021/11/15 18:02:57;;;;;;;39.15;21.60;;;6.80;99.90;;;7.34;99.72;101412.31;5038578;28;20143;-82
2021/11/15 18:05:24;;;;;;;40.45;22.00;;;6.80;99.90;;;7.32;99.63;101423.75;5038195;28;20166;-82
2021/11/15 18:07:50;;;;;;;38.90;21.90;;;6.80;99.90;;;7.32;99.95;101417.41;5038459;28;20029;-81
2021/11/15 18:10:17;;;;;;;40.58;21.77;;;6.80;99.90;;;7.28;99.57;101417.22;5070651;22;20184;-75
2021/11/15 18:12:44;;;;;;;40.25;20.52;;;6.80;99.90;;;7.24;100.00;101418.16;5037114;28;20029;-75
2021/11/15 18:15:17;;;;;;;38.08;21.25;;;6.70;99.90;;;7.25;99.48;101414.25;5041473;28;20049;-76
2021/11/15 18:17:48;;;;;;;37.05;20.25;;;6.70;99.90;;;7.19;99.82;101410.75;5039500;28;20511;-80
2021/11/15 18:20:15;;;;;;;35.92;19.92;;;6.70;99.90;;;7.19;99.76;101409.97;5035113;28;20037;-77
2021/11/15 18:22:45;;;;;;;33.13;19.75;;;6.70;99.90;;;7.15;100.00;101411.72;5035930;28;20025;-76
2021/11/15 18:25:14;;;;;;;35.55;21.17;;;6.60;99.90;;;7.18;100.00;101411.91;5035811;28;20108;-78
2021/11/15 18:27:41;;;;;;;40.17;21.65;;;6.60;99.90;;;7.21;99.67;101404.88;5034275;28;20095;-77
2021/11/15 18:30:16;;;;;;;33.78;19.08;;;6.70;99.90;;;7.28;99.70;101417.22;5051031;28;20124;-78
2021/11/15 18:32:43;;;;;;;38.67;19.90;;;6.70;99.90;;;7.28;99.51;101413.59;5054423;28;20071;-76
2021/11/15 18:35:11;;;;;;;36.83;21.55;;;6.70;99.90;;;7.26;99.32;101416.69;5051580;28;20037;-80
2021/11/15 18:37:40;;;;;;;48.13;24.83;;;6.70;99.90;;;7.21;99.25;101416.00;5051118;28;20064;-76
2021/11/15 18:40:13;;;;;;;40.15;21.73;;;6.70;99.90;;;7.25;99.63;101417.84;5034221;28;20061;-76
2021/11/15 18:42:49;;;;;;;44.13;23.90;;;6.70;99.90;;;7.26;99.23;101413.09;5035373;28;20048;-79
2021/11/15 18:45:20;;;;;;;;;;;6.70;99.90;;;7.28;99.17;101410.81;5050254;28;20030;-77
2021/11/15 18:47:52;;;;;;;41.75;21.40;;;6.60;99.90;;;7.28;98.60;101417.22;5034156;28;20106;-78
2021/11/15 18:50:24;;;;;;;43.97;23.23;;;6.60;99.90;;;7.23;99.07;101411.75;5050215;28;20037;-79
2021/11/15 18:52:52;;;;;;;39.97;23.02;;;6.60;99.90;;;7.17;99.30;101415.00;5035197;28;20118;-79
2021/11/15 18:55:23;;;;;;;39.15;21.48;;;6.60;99.90;;;7.12;99.58;101415.97;5035871;28;20041;-79
2021/11/15 18:57:50;;;;;;;40.60;21.23;;;6.60;99.90;;;7.14;99.25;101419.22;5016952;28;20037;-78
2021/11/15 19:00:25;;;;;;;40.97;22.98;;;6.60;99.90;;;7.21;99.36;101422.38;5037313;28;20045;-77
2021/11/15 19:02:53;;;;;;;43.03;22.45;;;6.60;99.90;;;7.17;99.18;101415.81;5058694;28;20093;-77
2021/11/15 19:05:26;;;;;;;48.78;23.30;;;6.60;99.90;;;7.13;99.70;101419.53;5041529;28;20040;-79
2021/11/15 19:08:00;;;;;;;42.53;22.83;;;6.60;99.90;;;7.17;99.30;101426.09;5056733;28;20034;-77
2021/11/15 19:13:19;;;;;;;42.92;23.83;;;6.60;99.90;;;7.17;99.19;101424.16;5038773;28;20021;-77
2021/11/15 19:15:51;;;;;;;41.10;22.65;;;6.60;99.90;;;7.18;99.45;101430.53;5037222;28;20120;-78
2021/11/15 19:18:19;;;;;;;39.83;21.63;;;6.60;99.90;;;7.14;99.10;101430.34;5037856;28;20143;-77
2021/11/15 19:20:49;;;;;;;44.33;22.83;;;6.60;99.90;;;7.15;99.14;101426.44;5039525;28;20029;-78
2021/11/15 19:23:18;;;;;;;49.60;24.27;;;6.60;99.90;;;7.07;99.13;101429.13;5029330;28;20053;-77
2021/11/15 19:25:47;;;;;;;47.85;24.48;;;6.60;99.90;;;7.07;99.14;101432.72;5031748;28;20037;-77
2021/11/15 19:28:15;;;;;;;41.22;23.17;;;6.50;99.90;;;7.07;98.99;101431.91;5034222;28;20060;-76
2021/11/15 19:30:46;;;;;;;50.08;26.20;;;6.50;99.90;;;7.09;99.06;101435.22;5033994;28;20037;-75
2021/11/15 19:33:13;;;;;;;45.38;23.65;;;6.50;99.90;;;7.12;98.64;101443.75;5034421;28;20030;-77
2021/11/15 19:35:41;;;;;;;45.88;24.88;;;6.50;99.90;;;7.09;98.84;101443.53;5034410;28;20025;-78
2021/11/15 19:38:09;;;;;;;47.60;25.52;;;6.50;99.90;;;7.11;99.10;101450.41;5034176;28;20037;-77
2021/11/15 19:40:38;;;;;;;51.90;25.52;;;6.50;99.90;;;7.10;99.28;101451.53;5033273;28;20037;-79
2021/11/15 19:43:05;;;;;;;45.38;26.55;;;6.50;99.90;;;7.09;99.22;101451.88;5023420;28;20045;-78
2021/11/15 19:45:32;;;;;;;52.40;25.58;;;6.50;99.90;;;7.09;99.37;101455.47;5047662;28;20033;-79
2021/11/15 19:47:59;;;;;;;45.13;24.88;;;6.50;99.90;;;7.14;98.81;101457.28;5039585;28;20039;-77
2021/11/15 19:50:27;;;;;;;44.83;23.30;;;6.50;99.90;;;7.03;98.98;101448.38;5033586;28;20385;-79
2021/11/15 19:52:53;;;;;;;44.03;23.88;;;6.50;99.90;;;7.09;98.46;101446.31;5033299;28;20053;-77
2021/11/15 19:55:26;;;;;;;54.55;27.27;;;6.50;99.90;;;7.05;98.31;101448.91;5043612;28;20454;-77
2021/11/15 19:57:55;;;;;;;47.17;25.42;;;6.50;99.90;;;7.03;98.47;101445.59;5031374;28;20037;-78
2021/11/15 20:00:38;;;;;;;45.33;23.48;;;6.50;99.90;;;7.02;98.54;101446.75;5020696;28;20034;-80
2021/11/15 20:03:08;;;;;;;50.65;25.02;;;6.50;99.90;;;7.05;98.85;101443.34;5034229;28;20033;-78
2021/11/15 20:05:42;;;;;;;46.05;25.50;;;6.50;99.90;;;7.03;98.55;101442.03;5017501;28;20111;-77
2021/11/15 20:08:08;;;;;;;50.10;26.33;;;6.50;99.90;;;7.01;98.69;101445.09;5026685;28;20060;-79
2021/11/15 20:10:37;;;;;;;49.35;26.25;;;6.50;99.90;;;7.02;98.84;101440.38;5029245;28;20026;-82
2021/11/15 20:13:05;;;;;;;55.70;26.27;;;6.40;99.90;;;7.02;98.77;101462.59;4999323;28;20026;-79
2021/11/15 20:15:32;;;;;;;52.03;26.20;;;6.50;99.90;;;6.98;98.85;101453.25;4997535;28;20056;-79
2021/11/15 20:18:00;;;;;;;55.58;27.48;;;6.50;99.90;;;6.97;99.14;101451.63;4998861;28;20030;-77
2021/11/15 20:20:28;;;;;;;44.75;23.25;;;6.40;99.90;;;7.01;99.18;101449.84;5018792;28;20036;-77
2021/11/15 20:22:56;;;;;;;46.80;24.83;;;6.40;99.90;;;7.02;99.12;101445.94;5017921;28;20038;-78
2021/11/15 20:25:24;;;;;;;49.28;25.08;;;6.40;99.90;;;7.00;98.34;101440.69;5001757;28;20367;-77
2021/11/15 20:27:51;;;;;;;49.65;25.55;;;6.40;99.90;;;6.94;98.57;101447.50;5019188;28;20050;-78
2021/11/15 20:30:27;;;;;;;44.20;23.70;;;6.40;99.90;;;6.92;98.96;101444.22;5005037;28;20033;-76
2021/11/15 20:32:57;;;;;;;;;;;6.40;99.90;;;6.96;98.61;101441.66;5017245;28;20500;-79
2021/11/15 20:35:27;;;;;;;44.25;22.40;;;6.50;99.90;;;6.92;98.90;101443.41;5017544;28;19967;-78
2021/11/15 20:37:55;;;;;;;49.08;23.77;;;6.40;99.90;;;6.97;98.96;101435.75;4999434;28;20137;-77
2021/11/15 20:40:25;;;;;;;50.33;25.67;;;6.40;99.90;;;6.96;98.91;101438.88;5019666;28;20042;-78
2021/11/15 20:42:51;;;;;;;47.90;26.30;;;6.40;99.90;;;6.92;99.38;101441.44;5018820;28;20577;-77
2021/11/15 20:45:22;;;;;;;51.80;26.48;;;6.40;99.90;;;6.88;99.12;101437.66;5036322;28;20044;-78
2021/11/15 20:47:48;;;;;;;56.20;27.35;;;6.40;99.90;;;6.91;99.15;101425.91;5036824;28;20029;-79
2021/11/15 20:50:19;;;;;;;44.15;25.60;;;6.40;99.90;;;6.99;98.40;101427.13;5038170;28;20048;-76
2021/11/15 20:52:45;;;;;;;46.85;25.25;;;6.40;99.90;;;7.01;98.60;101422.88;5037085;28;20029;-78
2021/11/15 20:55:19;;;;;;;54.88;25.70;;;6.40;99.90;;;6.93;99.08;101420.88;5038276;28;20026;-77
2021/11/15 20:57:50;;;;;;;49.25;25.35;;;6.40;99.90;;;6.96;99.16;101419.44;5035396;28;20385;-78
2021/11/15 21:00:25;;;;;;;53.90;25.75;;;6.40;99.90;;;6.95;99.18;101423.31;5035839;28;20025;-77
2021/11/15 21:02:54;;;;;;;54.95;25.77;;;6.40;99.90;;;6.97;99.43;101421.06;5017877;28;20373;-77
2021/11/15 21:05:23;;;;;;;48.13;25.15;;;6.40;99.90;;;6.96;99.64;101422.19;5034938;28;20112;-79
2021/11/15 21:07:50;;;;;;;46.58;23.58;;;6.40;99.90;;;6.96;99.51;101417.47;5018086;28;20112;-77
2021/11/15 21:10:19;;;;;;;43.35;23.50;;;6.40;99.90;;;6.98;99.13;101422.69;5017765;28;20033;-79
2021/11/15 21:12:45;;;;;;;42.72;22.83;;;6.40;99.90;;;6.96;99.15;101422.19;5014644;28;20069;-80
2021/11/15 21:15:13;;;;;;;43.63;23.33;;;6.40;99.90;;;6.95;99.10;101417.78;5014898;28;20038;-77
2021/11/15 21:17:41;;;;;;;52.45;25.25;;;6.40;99.90;;;6.93;99.31;101417.28;5017988;28;20037;-76
2021/11/15 21:20:09;;;;;;;46.65;24.00;;;6.40;99.90;;;6.94;99.43;101433.63;5017549;28;20366;-78
2021/11/15 21:22:42;;;;;;;44.05;23.13;;;6.40;99.90;;;6.89;99.90;101425.41;5015621;28;20076;-76
2021/11/15 21:25:17;;;;;;;44.10;23.10;;;6.40;99.90;;;6.90;99.36;101424.28;5015176;28;20038;-76
2021/11/15 21:27:51;;;;;;;41.58;23.25;;;6.40;99.90;;;6.86;99.49;101423.28;5015256;28;20030;-78
2021/11/15 21:30:22;;;;;;;43.67;23.00;;;6.30;99.90;;;6.87;99.48;101431.28;5013807;28;20405;-77
2021/11/15 21:32:50;;;;;;;44.67;23.02;;;6.30;99.90;;;6.93;99.54;101434.78;4982816;28;20401;-76
2021/11/15 21:35:19;;;;;;;43.03;23.02;;;6.30;99.90;;;6.93;99.31;101434.78;5014448;28;20030;-77
2021/11/15 21:37:45;;;;;;;44.22;24.10;;;6.30;99.90;;;6.90;99.61;101430.63;5015955;28;20033;-79
2021/11/15 21:40:23;;;;;;;36.78;20.55;;;6.40;99.90;;;6.89;99.61;101431.78;4998243;28;20022;-79
2021/11/15 21:42:50;;;;;;;42.50;22.60;;;6.30;99.90;;;6.90;99.61;101438.19;4999350;28;20034;-77
2021/11/15 21:45:19;;;;;;;45.75;22.25;;;6.30;99.90;;;6.83;99.83;101440.56;5014658;28;20457;-78
2021/11/15 21:47:50;;;;;;;45.65;23.13;;;6.30;99.90;;;6.82;99.45;101444.47;5016110;28;20037;-77
2021/11/15 21:50:18;;;;;;;41.00;21.73;;;6.30;99.90;;;6.83;99.04;101433.06;5014194;28;20040;-77
2021/11/15 21:52:44;;;;;;;41.20;21.02;;;6.30;99.90;;;6.93;99.36;101434.78;5016114;28;20033;-81
2021/11/15 21:55:11;;;;;;;41.95;21.70;;;6.30;99.90;;;6.89;99.77;101433.75;5015970;28;20087;-79
2021/11/15 21:57:37;;;;;;;39.95;21.63;;;6.30;99.90;;;6.92;99.36;101426.75;5014621;28;20037;-78
2021/11/15 22:00:18;;;;;;;40.03;21.00;;;6.30;99.90;;;6.87;99.60;101431.28;5016689;28;20033;-76
2021/11/15 22:02:45;;;;;;;39.05;21.13;;;6.30;99.90;;;6.87;99.18;101427.69;5014921;28;20038;-78
2021/11/15 22:05:10;;;;;;;41.63;20.77;;;6.30;99.90;;;6.88;99.47;101432.91;5014656;28;20443;-75
2021/11/15 22:07:42;;;;;;;39.28;21.25;;;6.30;99.90;;;6.97;98.74;101429.41;5015753;28;20053;-77
2021/11/15 22:10:12;;;;;;;43.22;22.40;;;6.30;99.90;;;6.87;99.37;101431.28;5030083;28;20060;-77
2021/11/15 22:12:38;;;;;;;43.85;22.77;;;6.30;99.90;;;6.87;99.13;101428.50;5034232;28;20056;-78
2021/11/15 22:15:13;;;;;;;38.55;20.85;;;6.30;99.90;;;6.88;99.83;101426.53;5035265;28;20481;-79
2021/11/15 22:17:44;;;;;;;46.15;23.60;;;6.30;99.90;;;6.90;99.49;101427.88;5051171;28;20091;-78
2021/11/15 22:20:14;;;;;;;46.72;24.80;;;6.30;99.90;;;6.96;98.92;101431.34;5050972;28;20542;-77
2021/11/15 22:22:40;;;;;;;50.75;24.75;;;6.30;99.90;;;6.94;98.67;101432.78;5051558;28;20129;-76
2021/11/15 22:25:10;;;;;;;44.72;23.80;;;6.30;99.90;;;6.88;99.04;101426.53;5036160;28;20392;-77
2021/11/15 22:27:38;;;;;;;50.10;24.58;;;6.30;99.90;;;6.83;99.57;101426.69;5050495;28;20049;-78
2021/11/15 22:30:06;;;;;;;48.15;25.13;;;6.30;99.90;;;6.84;99.73;101433.84;5033931;28;20029;-78
2021/11/15 22:32:33;;;;;;;44.80;23.48;;;6.30;99.90;;;6.81;99.82;101426.16;5036272;28;20021;-77